METAR = EDDE 201050Z VRB02KT CAVOK M03/M07 Q1016 NOSIG

TAF = TAF TAF EDDE 200500Z 2006/2106 VRB03KT CAVOK

METAR EDDE Decoded:

STATION........ EDDE
OBSERVED....... Sun Jan 20, 11:50 MET
NOW............ Sun Jan 20, 12:09 MET
AGE............ 19 min ago
WIND........... varies at 4 km/h
VISIBILITY..... more than 10 km
CLOUDS......... clear skies
TEMP........... 27°F (-3°C)
WIND CHILL..... 22°F (-6°C)
DEWPT.......... 19°F (-7°C)
HUMIDITY....... 74%
BAROMETER...... 1016 hPa (30 in Hg)


ICAO-Code: